Cuatreros, Argentina
Current Conditions -  °F | °C
As of 7:00 AM on Saturday 20 Dec 2014 (Local Time) from SAZM Reporting Station
Overcast Overcast  
Wind Chill: 63°   Ceiling: 10000
Heat Index: 63°   Visibility: 5mi
Dew Point: 59°   Wind: 10mph
Humidity: 88%   Direction: 20°NNE
Pressure: 29.56"   Gusts: NA
Location:  38.7°S, 62.4°W
Report Text: SAZM 201000Z 02009KT 8000 SCT025 OVC10017/15 Q1001
Loading
Personal Weather Stations






























Interactive Weather Map New forecast layout! Learn more

10-Day Weather Forecast

Advertisements
Track Severe Weather on mobile